sensor_id;sensor_type;location;lat;lon;timestamp;temperature;humidity
15617;DHT22;7908;51.688;7.130;2023-02-15T00:00:18;0.20;99.90
15617;DHT22;7908;51.688;7.130;2023-02-15T00:02:48;0.20;99.90
15617;DHT22;7908;51.688;7.130;2023-02-15T00:05:16;0.20;99.90
15617;DHT22;7908;51.688;7.130;2023-02-15T00:07:46;0.20;99.90
15617;DHT22;7908;51.688;7.130;2023-02-15T00:10:15;0.10;99.90
15617;DHT22;7908;51.688;7.130;2023-02-15T00:12:44;0.10;99.90
15617;DHT22;7908;51.688;7.130;2023-02-15T00:15:13;0.10;99.90
15617;DHT22;7908;51.688;7.130;2023-02-15T00:17:42;0.10;99.90
15617;DHT22;7908;51.688;7.130;2023-02-15T00:20:11;0.10;99.90
15617;DHT22;7908;51.688;7.130;2023-02-15T00:22:39;0.20;99.90
15617;DHT22;7908;51.688;7.130;2023-02-15T00:25:10;0.20;99.90
15617;DHT22;7908;51.688;7.130;2023-02-15T00:27:38;0.20;99.90
15617;DHT22;7908;51.688;7.130;2023-02-15T00:30:08;0.20;99.90
15617;DHT22;7908;51.688;7.130;2023-02-15T00:32:37;0.20;99.90
15617;DHT22;7908;51.688;7.130;2023-02-15T00:35:06;0.20;99.90
15617;DHT22;7908;51.688;7.130;2023-02-15T00:37:36;0.20;99.90
15617;DHT22;7908;51.688;7.130;2023-02-15T00:40:10;0.20;99.90
15617;DHT22;7908;51.688;7.130;2023-02-15T00:42:38;0.10;99.90
15617;DHT22;7908;51.688;7.130;2023-02-15T00:45:08;0.10;99.90
15617;DHT22;7908;51.688;7.130;2023-02-15T00:47:39;0.00;99.90
15617;DHT22;7908;51.688;7.130;2023-02-15T00:50:08;0.00;99.90
15617;DHT22;7908;51.688;7.130;2023-02-15T00:52:37;0.00;99.90
15617;DHT22;7908;51.688;7.130;2023-02-15T00:55:07;0.00;99.90
15617;DHT22;7908;51.688;7.130;2023-02-15T00:57:37;-0.10;99.90
15617;DHT22;7908;51.688;7.130;2023-02-15T01:00:07;-0.10;99.90
15617;DHT22;7908;51.688;7.130;2023-02-15T01:02:35;-0.10;99.90
15617;DHT22;7908;51.688;7.130;2023-02-15T01:05:05;-0.20;99.90
15617;DHT22;7908;51.688;7.130;2023-02-15T01:07:34;-0.30;99.90
15617;DHT22;7908;51.688;7.130;2023-02-15T01:10:03;-0.30;99.90
15617;DHT22;7908;51.688;7.130;2023-02-15T01:12:31;-0.30;99.90
15617;DHT22;7908;51.688;7.130;2023-02-15T01:15:01;-0.30;99.90
15617;DHT22;7908;51.688;7.130;2023-02-15T01:17:31;-0.30;99.90
15617;DHT22;7908;51.688;7.130;2023-02-15T01:20:00;-0.30;99.90
15617;DHT22;7908;51.688;7.130;2023-02-15T01:22:29;-0.20;99.90
15617;DHT22;7908;51.688;7.130;2023-02-15T01:24:57;-0.20;99.90
15617;DHT22;7908;51.688;7.130;2023-02-15T01:27:26;-0.30;99.90
15617;DHT22;7908;51.688;7.130;2023-02-15T01:29:57;-0.20;99.90
15617;DHT22;7908;51.688;7.130;2023-02-15T01:32:27;-0.20;99.90
15617;DHT22;7908;51.688;7.130;2023-02-15T01:34:56;-0.20;99.90
15617;DHT22;7908;51.688;7.130;2023-02-15T01:37:25;-0.20;99.90
15617;DHT22;7908;51.688;7.130;2023-02-15T01:39:53;-0.20;99.90
15617;DHT22;7908;51.688;7.130;2023-02-15T01:42:22;-0.30;99.90
15617;DHT22;7908;51.688;7.130;2023-02-15T01:44:53;-0.30;99.90
15617;DHT22;7908;51.688;7.130;2023-02-15T01:47:26;-0.30;99.90
15617;DHT22;7908;51.688;7.130;2023-02-15T01:50:03;-0.30;99.90
15617;DHT22;7908;51.688;7.130;2023-02-15T01:52:35;-0.30;99.90
15617;DHT22;7908;51.688;7.130;2023-02-15T01:55:06;-0.40;99.90
15617;DHT22;7908;51.688;7.130;2023-02-15T01:57:37;-0.40;99.90
15617;DHT22;7908;51.688;7.130;2023-02-15T02:00:07;-0.40;99.90
15617;DHT22;7908;51.688;7.130;2023-02-15T02:02:36;-0.50;99.90
15617;DHT22;7908;51.688;7.130;2023-02-15T02:05:07;-0.50;99.90
15617;DHT22;7908;51.688;7.130;2023-02-15T02:07:39;-0.50;99.90
15617;DHT22;7908;51.688;7.130;2023-02-15T02:10:12;-0.50;99.90
15617;DHT22;7908;51.688;7.130;2023-02-15T02:12:42;-0.50;99.90
15617;DHT22;7908;51.688;7.130;2023-02-15T02:15:12;-0.50;99.90
15617;DHT22;7908;51.688;7.130;2023-02-15T02:17:58;-0.50;99.90
15617;DHT22;7908;51.688;7.130;2023-02-15T02:23:37;-0.70;99.90
15617;DHT22;7908;51.688;7.130;2023-02-15T02:26:49;-0.70;99.90
15617;DHT22;7908;51.688;7.130;2023-02-15T02:32:53;-0.70;99.90
15617;DHT22;7908;51.688;7.130;2023-02-15T02:35:30;-0.70;99.90
15617;DHT22;7908;51.688;7.130;2023-02-15T02:38:07;-0.70;99.90
15617;DHT22;7908;51.688;7.130;2023-02-15T02:40:46;-0.70;99.90
15617;DHT22;7908;51.688;7.130;2023-02-15T02:43:20;-0.80;99.90
15617;DHT22;7908;51.688;7.130;2023-02-15T02:45:53;-0.80;99.90
15617;DHT22;7908;51.688;7.130;2023-02-15T02:48:27;-0.90;99.90
15617;DHT22;7908;51.688;7.130;2023-02-15T02:50:58;-0.90;99.90
15617;DHT22;7908;51.688;7.130;2023-02-15T02:53:29;-0.90;99.90
15617;DHT22;7908;51.688;7.130;2023-02-15T02:56:01;-0.90;99.90
15617;DHT22;7908;51.688;7.130;2023-02-15T02:58:37;-0.90;99.90
15617;DHT22;7908;51.688;7.130;2023-02-15T03:01:11;-0.80;99.90
15617;DHT22;7908;51.688;7.130;2023-02-15T03:03:44;-0.80;99.90
15617;DHT22;7908;51.688;7.130;2023-02-15T03:06:18;-0.80;99.90
15617;DHT22;7908;51.688;7.130;2023-02-15T03:08:50;-0.90;99.90
15617;DHT22;7908;51.688;7.130;2023-02-15T03:11:19;-0.90;99.90
15617;DHT22;7908;51.688;7.130;2023-02-15T03:13:50;-0.90;99.90
15617;DHT22;7908;51.688;7.130;2023-02-15T03:16:20;-0.90;99.90
15617;DHT22;7908;51.688;7.130;2023-02-15T03:19:00;-1.00;99.90
15617;DHT22;7908;51.688;7.130;2023-02-15T03:21:34;-1.00;99.90
15617;DHT22;7908;51.688;7.130;2023-02-15T03:24:08;-1.10;99.90
15617;DHT22;7908;51.688;7.130;2023-02-15T03:26:39;-1.10;99.90
15617;DHT22;7908;51.688;7.130;2023-02-15T03:29:08;-1.20;99.90
15617;DHT22;7908;51.688;7.130;2023-02-15T03:31:43;-1.20;99.90
15617;DHT22;7908;51.688;7.130;2023-02-15T03:34:15;-1.20;99.90
15617;DHT22;7908;51.688;7.130;2023-02-15T03:36:47;-1.20;99.90
15617;DHT22;7908;51.688;7.130;2023-02-15T03:39:22;-1.10;99.90
15617;DHT22;7908;51.688;7.130;2023-02-15T03:41:58;-1.20;99.90
15617;DHT22;7908;51.688;7.130;2023-02-15T03:44:29;-1.20;99.90
15617;DHT22;7908;51.688;7.130;2023-02-15T03:47:05;-1.20;99.90
15617;DHT22;7908;51.688;7.130;2023-02-15T03:49:46;-1.20;99.90
15617;DHT22;7908;51.688;7.130;2023-02-15T03:52:16;-1.20;99.90
15617;DHT22;7908;51.688;7.130;2023-02-15T03:54:44;-1.20;99.90
15617;DHT22;7908;51.688;7.130;2023-02-15T03:57:17;-1.30;99.90
15617;DHT22;7908;51.688;7.130;2023-02-15T04:00:09;-1.20;99.90
15617;DHT22;7908;51.688;7.130;2023-02-15T04:03:07;-1.10;99.90
15617;DHT22;7908;51.688;7.130;2023-02-15T04:05:39;-1.10;99.90
15617;DHT22;7908;51.688;7.130;2023-02-15T04:08:08;-1.10;99.90
15617;DHT22;7908;51.688;7.130;2023-02-15T04:10:37;-1.20;99.90
15617;DHT22;7908;51.688;7.130;2023-02-15T04:13:20;-1.20;99.90
15617;DHT22;7908;51.688;7.130;2023-02-15T04:15:49;-1.20;99.90
15617;DHT22;7908;51.688;7.130;2023-02-15T04:18:35;-1.30;99.90
15617;DHT22;7908;51.688;7.130;2023-02-15T04:21:24;-1.30;99.90
15617;DHT22;7908;51.688;7.130;2023-02-15T04:24:11;-1.30;99.90
15617;DHT22;7908;51.688;7.130;2023-02-15T04:26:57;-1.20;99.90
15617;DHT22;7908;51.688;7.130;2023-02-15T04:29:29;-1.30;99.90
15617;DHT22;7908;51.688;7.130;2023-02-15T04:31:59;-1.30;99.90
15617;DHT22;7908;51.688;7.130;2023-02-15T04:34:28;-1.30;99.90
15617;DHT22;7908;51.688;7.130;2023-02-15T04:36:58;-1.30;99.90
15617;DHT22;7908;51.688;7.130;2023-02-15T04:39:27;-1.30;99.90
15617;DHT22;7908;51.688;7.130;2023-02-15T04:41:56;-1.30;99.90
15617;DHT22;7908;51.688;7.130;2023-02-15T04:44:24;-1.30;99.90
15617;DHT22;7908;51.688;7.130;2023-02-15T04:46:53;-1.30;99.90
15617;DHT22;7908;51.688;7.130;2023-02-15T04:49:21;-1.30;99.90
15617;DHT22;7908;51.688;7.130;2023-02-15T04:51:50;-1.30;99.90
15617;DHT22;7908;51.688;7.130;2023-02-15T04:54:20;-1.30;99.90
15617;DHT22;7908;51.688;7.130;2023-02-15T04:56:49;-1.30;99.90
15617;DHT22;7908;51.688;7.130;2023-02-15T04:59:17;-1.30;99.90
15617;DHT22;7908;51.688;7.130;2023-02-15T05:01:46;-1.30;99.90
15617;DHT22;7908;51.688;7.130;2023-02-15T05:04:15;-1.30;99.90
15617;DHT22;7908;51.688;7.130;2023-02-15T05:06:44;-1.40;99.90
15617;DHT22;7908;51.688;7.130;2023-02-15T05:09:13;-1.40;99.90
15617;DHT22;7908;51.688;7.130;2023-02-15T05:11:43;-1.50;99.90
15617;DHT22;7908;51.688;7.130;2023-02-15T05:14:13;-1.50;99.90
15617;DHT22;7908;51.688;7.130;2023-02-15T05:16:42;-1.50;99.90
15617;DHT22;7908;51.688;7.130;2023-02-15T05:19:10;-1.50;99.90
15617;DHT22;7908;51.688;7.130;2023-02-15T05:21:39;-1.50;99.90
15617;DHT22;7908;51.688;7.130;2023-02-15T05:24:08;-1.50;99.90
15617;DHT22;7908;51.688;7.130;2023-02-15T05:26:51;-1.50;99.90
15617;DHT22;7908;51.688;7.130;2023-02-15T05:29:38;-1.40;99.90
15617;DHT22;7908;51.688;7.130;2023-02-15T05:32:06;-1.50;99.90
15617;DHT22;7908;51.688;7.130;2023-02-15T05:34:35;-1.50;99.90
15617;DHT22;7908;51.688;7.130;2023-02-15T05:37:04;-1.50;99.90
15617;DHT22;7908;51.688;7.130;2023-02-15T05:39:32;-1.50;99.90
15617;DHT22;7908;51.688;7.130;2023-02-15T05:42:02;-1.50;99.90
15617;DHT22;7908;51.688;7.130;2023-02-15T05:44:31;-1.50;99.90
15617;DHT22;7908;51.688;7.130;2023-02-15T05:47:00;-1.50;99.90
15617;DHT22;7908;51.688;7.130;2023-02-15T05:49:29;-1.60;99.90
15617;DHT22;7908;51.688;7.130;2023-02-15T05:51:58;-1.60;99.90
15617;DHT22;7908;51.688;7.130;2023-02-15T05:54:27;-1.60;99.90
15617;DHT22;7908;51.688;7.130;2023-02-15T05:56:56;-1.60;99.90
15617;DHT22;7908;51.688;7.130;2023-02-15T05:59:26;-1.60;99.90
15617;DHT22;7908;51.688;7.130;2023-02-15T06:01:55;-1.60;99.90
15617;DHT22;7908;51.688;7.130;2023-02-15T06:04:23;-1.60;99.90
15617;DHT22;7908;51.688;7.130;2023-02-15T06:06:52;-1.60;99.90
15617;DHT22;7908;51.688;7.130;2023-02-15T06:09:21;-1.60;99.90
15617;DHT22;7908;51.688;7.130;2023-02-15T06:11:49;-1.60;99.90
15617;DHT22;7908;51.688;7.130;2023-02-15T06:14:18;-1.60;99.90
15617;DHT22;7908;51.688;7.130;2023-02-15T06:16:48;-1.60;99.90
15617;DHT22;7908;51.688;7.130;2023-02-15T06:19:16;-1.70;99.90
15617;DHT22;7908;51.688;7.130;2023-02-15T06:21:46;-1.70;99.90
15617;DHT22;7908;51.688;7.130;2023-02-15T06:24:14;-1.70;99.90
15617;DHT22;7908;51.688;7.130;2023-02-15T06:26:43;-1.70;99.90
15617;DHT22;7908;51.688;7.130;2023-02-15T06:29:12;-1.60;99.90
15617;DHT22;7908;51.688;7.130;2023-02-15T06:31:40;-1.70;99.90
15617;DHT22;7908;51.688;7.130;2023-02-15T06:34:10;-1.70;99.90
15617;DHT22;7908;51.688;7.130;2023-02-15T06:36:40;-1.70;99.90
15617;DHT22;7908;51.688;7.130;2023-02-15T06:39:11;-1.70;99.90
15617;DHT22;7908;51.688;7.130;2023-02-15T06:41:39;-1.70;99.90
15617;DHT22;7908;51.688;7.130;2023-02-15T06:44:08;-1.70;99.90
15617;DHT22;7908;51.688;7.130;2023-02-15T06:46:39;-1.70;99.90
15617;DHT22;7908;51.688;7.130;2023-02-15T06:49:07;-1.70;99.90
15617;DHT22;7908;51.688;7.130;2023-02-15T06:51:37;-1.80;99.90
15617;DHT22;7908;51.688;7.130;2023-02-15T06:54:06;-1.80;99.90
15617;DHT22;7908;51.688;7.130;2023-02-15T06:56:34;-1.80;99.90
15617;DHT22;7908;51.688;7.130;2023-02-15T06:59:03;-1.80;99.90
15617;DHT22;7908;51.688;7.130;2023-02-15T07:01:32;-1.70;99.90
15617;DHT22;7908;51.688;7.130;2023-02-15T07:04:00;-1.70;99.90
15617;DHT22;7908;51.688;7.130;2023-02-15T07:06:31;-1.70;99.90
15617;DHT22;7908;51.688;7.130;2023-02-15T07:09:01;-1.70;99.90
15617;DHT22;7908;51.688;7.130;2023-02-15T07:11:30;-1.70;99.90
15617;DHT22;7908;51.688;7.130;2023-02-15T07:14:16;-1.70;99.90
15617;DHT22;7908;51.688;7.130;2023-02-15T07:16:47;-1.70;99.90
15617;DHT22;7908;51.688;7.130;2023-02-15T07:19:16;-1.60;99.90
15617;DHT22;7908;51.688;7.130;2023-02-15T07:21:44;-1.60;99.90
15617;DHT22;7908;51.688;7.130;2023-02-15T07:24:16;-1.60;99.90
15617;DHT22;7908;51.688;7.130;2023-02-15T07:26:45;-1.60;99.90
15617;DHT22;7908;51.688;7.130;2023-02-15T07:29:13;-1.60;99.90
15617;DHT22;7908;51.688;7.130;2023-02-15T07:31:43;-1.60;99.90
15617;DHT22;7908;51.688;7.130;2023-02-15T07:34:12;-1.60;99.90
15617;DHT22;7908;51.688;7.130;2023-02-15T07:36:41;-1.50;99.90
15617;DHT22;7908;51.688;7.130;2023-02-15T07:39:11;-1.50;99.90
15617;DHT22;7908;51.688;7.130;2023-02-15T07:41:41;-1.40;99.90
15617;DHT22;7908;51.688;7.130;2023-02-15T07:44:11;-1.40;99.90
15617;DHT22;7908;51.688;7.130;2023-02-15T07:46:41;-1.40;99.90
15617;DHT22;7908;51.688;7.130;2023-02-15T07:49:10;-1.30;99.90
15617;DHT22;7908;51.688;7.130;2023-02-15T07:51:38;-1.30;99.90
15617;DHT22;7908;51.688;7.130;2023-02-15T07:54:08;-1.20;99.90
15617;DHT22;7908;51.688;7.130;2023-02-15T07:56:37;-1.20;99.90
15617;DHT22;7908;51.688;7.130;2023-02-15T07:59:08;-1.10;99.90
15617;DHT22;7908;51.688;7.130;2023-02-15T08:01:38;-1.00;99.90
15617;DHT22;7908;51.688;7.130;2023-02-15T08:04:08;-0.90;99.90
15617;DHT22;7908;51.688;7.130;2023-02-15T08:06:38;-0.90;99.90
15617;DHT22;7908;51.688;7.130;2023-02-15T08:09:08;-0.80;99.90
15617;DHT22;7908;51.688;7.130;2023-02-15T08:11:38;-0.70;99.90
15617;DHT22;7908;51.688;7.130;2023-02-15T08:14:10;-0.70;99.90
15617;DHT22;7908;51.688;7.130;2023-02-15T08:16:40;-0.60;99.90
15617;DHT22;7908;51.688;7.130;2023-02-15T08:19:11;-0.60;99.90
15617;DHT22;7908;51.688;7.130;2023-02-15T08:21:41;-0.50;99.90
15617;DHT22;7908;51.688;7.130;2023-02-15T08:24:11;-0.50;99.90
15617;DHT22;7908;51.688;7.130;2023-02-15T08:26:43;-0.40;99.90
15617;DHT22;7908;51.688;7.130;2023-02-15T08:29:16;-0.30;99.90
15617;DHT22;7908;51.688;7.130;2023-02-15T08:31:46;-0.30;99.90
15617;DHT22;7908;51.688;7.130;2023-02-15T08:34:17;-0.20;99.90
15617;DHT22;7908;51.688;7.130;2023-02-15T08:36:46;-0.10;99.90
15617;DHT22;7908;51.688;7.130;2023-02-15T08:39:15;0.00;99.90
15617;DHT22;7908;51.688;7.130;2023-02-15T08:41:45;0.00;99.90
15617;DHT22;7908;51.688;7.130;2023-02-15T08:44:17;0.10;99.90
15617;DHT22;7908;51.688;7.130;2023-02-15T08:46:48;0.20;99.90
15617;DHT22;7908;51.688;7.130;2023-02-15T08:49:19;0.30;99.90
15617;DHT22;7908;51.688;7.130;2023-02-15T08:51:49;0.40;99.90
15617;DHT22;7908;51.688;7.130;2023-02-15T08:54:19;0.40;99.90
15617;DHT22;7908;51.688;7.130;2023-02-15T08:56:49;0.50;99.90
15617;DHT22;7908;51.688;7.130;2023-02-15T08:59:20;0.70;99.90
15617;DHT22;7908;51.688;7.130;2023-02-15T09:01:50;0.80;99.90
15617;DHT22;7908;51.688;7.130;2023-02-15T09:04:20;0.90;99.90
15617;DHT22;7908;51.688;7.130;2023-02-15T09:06:50;1.00;99.90
15617;DHT22;7908;51.688;7.130;2023-02-15T09:09:20;1.10;99.90
15617;DHT22;7908;51.688;7.130;2023-02-15T09:11:51;1.20;99.90
15617;DHT22;7908;51.688;7.130;2023-02-15T09:14:26;1.30;99.90
15617;DHT22;7908;51.688;7.130;2023-02-15T09:16:55;1.40;99.90
15617;DHT22;7908;51.688;7.130;2023-02-15T09:19:24;1.50;99.90
15617;DHT22;7908;51.688;7.130;2023-02-15T09:21:54;1.60;99.90
15617;DHT22;7908;51.688;7.130;2023-02-15T09:24:22;1.70;99.90
15617;DHT22;7908;51.688;7.130;2023-02-15T09:26:51;1.80;99.90
15617;DHT22;7908;51.688;7.130;2023-02-15T09:29:20;1.90;99.90
15617;DHT22;7908;51.688;7.130;2023-02-15T09:31:51;2.10;99.90
15617;DHT22;7908;51.688;7.130;2023-02-15T09:34:21;2.20;99.90
15617;DHT22;7908;51.688;7.130;2023-02-15T09:36:50;2.30;99.90
15617;DHT22;7908;51.688;7.130;2023-02-15T09:39:21;2.50;99.90
15617;DHT22;7908;51.688;7.130;2023-02-15T09:45:09;2.70;99.90
15617;DHT22;7908;51.688;7.130;2023-02-15T09:48:16;2.90;99.90
15617;DHT22;7908;51.688;7.130;2023-02-15T09:50:58;3.10;99.90
15617;DHT22;7908;51.688;7.130;2023-02-15T09:53:42;3.20;99.90
15617;DHT22;7908;51.688;7.130;2023-02-15T09:56:23;3.40;99.90
15617;DHT22;7908;51.688;7.130;2023-02-15T09:59:00;3.60;99.90
15617;DHT22;7908;51.688;7.130;2023-02-15T10:01:41;3.70;99.90
15617;DHT22;7908;51.688;7.130;2023-02-15T10:04:33;3.80;99.90
15617;DHT22;7908;51.688;7.130;2023-02-15T10:07:13;4.00;99.90
15617;DHT22;7908;51.688;7.130;2023-02-15T10:09:57;4.10;99.90
15617;DHT22;7908;51.688;7.130;2023-02-15T10:12:39;4.30;99.90
15617;DHT22;7908;51.688;7.130;2023-02-15T10:15:27;4.50;99.90
15617;DHT22;7908;51.688;7.130;2023-02-15T10:18:17;4.60;99.90
15617;DHT22;7908;51.688;7.130;2023-02-15T10:20:56;4.80;99.90
15617;DHT22;7908;51.688;7.130;2023-02-15T10:23:48;5.00;99.90
15617;DHT22;7908;51.688;7.130;2023-02-15T10:26:21;5.10;99.90
15617;DHT22;7908;51.688;7.130;2023-02-15T10:28:52;5.20;99.90
15617;DHT22;7908;51.688;7.130;2023-02-15T10:31:27;5.30;99.90
15617;DHT22;7908;51.688;7.130;2023-02-15T10:34:14;5.40;99.90
15617;DHT22;7908;51.688;7.130;2023-02-15T10:39:51;5.60;99.90
15617;DHT22;7908;51.688;7.130;2023-02-15T10:42:29;5.70;99.90
15617;DHT22;7908;51.688;7.130;2023-02-15T10:45:10;5.80;99.90
15617;DHT22;7908;51.688;7.130;2023-02-15T10:47:56;5.90;99.90
15617;DHT22;7908;51.688;7.130;2023-02-15T10:50:43;6.00;99.90
15617;DHT22;7908;51.688;7.130;2023-02-15T10:53:25;6.20;99.90
15617;DHT22;7908;51.688;7.130;2023-02-15T10:56:05;6.40;99.90
15617;DHT22;7908;51.688;7.130;2023-02-15T10:58:47;6.50;99.90
15617;DHT22;7908;51.688;7.130;2023-02-15T11:01:23;6.60;99.90
15617;DHT22;7908;51.688;7.130;2023-02-15T11:04:18;6.70;99.90
15617;DHT22;7908;51.688;7.130;2023-02-15T11:06:54;6.80;99.90
15617;DHT22;7908;51.688;7.130;2023-02-15T11:09:38;6.90;99.90
15617;DHT22;7908;51.688;7.130;2023-02-15T11:12:13;7.10;99.90
15617;DHT22;7908;51.688;7.130;2023-02-15T11:14:51;7.20;99.90
15617;DHT22;7908;51.688;7.130;2023-02-15T11:17:25;7.30;99.90
15617;DHT22;7908;51.688;7.130;2023-02-15T11:20:00;7.40;99.90
15617;DHT22;7908;51.688;7.130;2023-02-15T11:22:33;7.50;99.90
15617;DHT22;7908;51.688;7.130;2023-02-15T11:25:17;7.60;99.90
15617;DHT22;7908;51.688;7.130;2023-02-15T11:27:48;7.70;99.90
15617;DHT22;7908;51.688;7.130;2023-02-15T11:30:23;7.80;99.90
15617;DHT22;7908;51.688;7.130;2023-02-15T11:32:54;7.90;99.90
15617;DHT22;7908;51.688;7.130;2023-02-15T11:35:27;8.00;99.90
15617;DHT22;7908;51.688;7.130;2023-02-15T11:38:03;8.00;99.90
15617;DHT22;7908;51.688;7.130;2023-02-15T11:40:41;8.10;99.90
15617;DHT22;7908;51.688;7.130;2023-02-15T11:43:16;8.20;99.90
15617;DHT22;7908;51.688;7.130;2023-02-15T11:45:46;8.30;99.90
15617;DHT22;7908;51.688;7.130;2023-02-15T11:48:16;8.40;99.90
15617;DHT22;7908;51.688;7.130;2023-02-15T11:50:45;8.40;99.90
15617;DHT22;7908;51.688;7.130;2023-02-15T11:53:16;8.50;99.90
15617;DHT22;7908;51.688;7.130;2023-02-15T11:55:48;8.60;99.90
15617;DHT22;7908;51.688;7.130;2023-02-15T11:58:25;8.60;99.90
15617;DHT22;7908;51.688;7.130;2023-02-15T12:01:00;8.70;99.90
15617;DHT22;7908;51.688;7.130;2023-02-15T12:03:43;8.80;99.90
15617;DHT22;7908;51.688;7.130;2023-02-15T12:06:22;8.80;99.90
15617;DHT22;7908;51.688;7.130;2023-02-15T12:09:03;8.90;99.90
15617;DHT22;7908;51.688;7.130;2023-02-15T12:11:43;8.90;99.90
15617;DHT22;7908;51.688;7.130;2023-02-15T12:14:13;9.00;99.90
15617;DHT22;7908;51.688;7.130;2023-02-15T12:16:46;9.00;99.90
15617;DHT22;7908;51.688;7.130;2023-02-15T12:19:29;9.10;99.90
15617;DHT22;7908;51.688;7.130;2023-02-15T12:22:01;9.20;99.90
15617;DHT22;7908;51.688;7.130;2023-02-15T12:24:33;9.30;99.90
15617;DHT22;7908;51.688;7.130;2023-02-15T12:27:12;9.30;99.90
15617;DHT22;7908;51.688;7.130;2023-02-15T12:29:46;9.30;99.90
15617;DHT22;7908;51.688;7.130;2023-02-15T12:32:18;9.30;99.90
15617;DHT22;7908;51.688;7.130;2023-02-15T12:34:49;9.40;99.90
15617;DHT22;7908;51.688;7.130;2023-02-15T12:37:22;9.50;99.90
15617;DHT22;7908;51.688;7.130;2023-02-15T12:39:54;9.50;99.90
15617;DHT22;7908;51.688;7.130;2023-02-15T12:42:25;9.60;99.90
15617;DHT22;7908;51.688;7.130;2023-02-15T12:44:59;9.70;99.90
15617;DHT22;7908;51.688;7.130;2023-02-15T12:47:28;9.70;99.90
15617;DHT22;7908;51.688;7.130;2023-02-15T12:50:13;9.70;99.90
15617;DHT22;7908;51.688;7.130;2023-02-15T12:52:47;9.80;99.90
15617;DHT22;7908;51.688;7.130;2023-02-15T12:55:22;9.70;99.90
15617;DHT22;7908;51.688;7.130;2023-02-15T12:58:18;9.80;99.90
15617;DHT22;7908;51.688;7.130;2023-02-15T13:01:02;9.80;99.90
15617;DHT22;7908;51.688;7.130;2023-02-15T13:03:31;9.80;99.90
15617;DHT22;7908;51.688;7.130;2023-02-15T13:06:02;9.90;99.90
15617;DHT22;7908;51.688;7.130;2023-02-15T13:08:37;9.90;99.90
15617;DHT22;7908;51.688;7.130;2023-02-15T13:11:09;9.90;99.90
15617;DHT22;7908;51.688;7.130;2023-02-15T13:13:51;9.90;99.90
15617;DHT22;7908;51.688;7.130;2023-02-15T13:16:30;10.00;99.90
15617;DHT22;7908;51.688;7.130;2023-02-15T13:19:04;10.00;99.90
15617;DHT22;7908;51.688;7.130;2023-02-15T13:21:37;10.00;99.90
15617;DHT22;7908;51.688;7.130;2023-02-15T13:24:17;10.00;99.90
15617;DHT22;7908;51.688;7.130;2023-02-15T13:26:47;10.10;99.90
15617;DHT22;7908;51.688;7.130;2023-02-15T13:29:24;10.10;99.90
15617;DHT22;7908;51.688;7.130;2023-02-15T13:31:55;10.10;99.90
15617;DHT22;7908;51.688;7.130;2023-02-15T13:34:29;10.10;99.90
15617;DHT22;7908;51.688;7.130;2023-02-15T13:37:04;10.10;99.90
15617;DHT22;7908;51.688;7.130;2023-02-15T13:39:38;10.20;99.90
15617;DHT22;7908;51.688;7.130;2023-02-15T13:42:17;10.20;99.90
15617;DHT22;7908;51.688;7.130;2023-02-15T13:45:10;10.30;99.90
15617;DHT22;7908;51.688;7.130;2023-02-15T13:47:52;10.20;99.90
15617;DHT22;7908;51.688;7.130;2023-02-15T13:53:35;10.20;99.90
15617;DHT22;7908;51.688;7.130;2023-02-15T13:56:16;10.30;99.90
15617;DHT22;7908;51.688;7.130;2023-02-15T13:59:02;10.30;99.90
15617;DHT22;7908;51.688;7.130;2023-02-15T14:01:42;10.40;99.90
15617;DHT22;7908;51.688;7.130;2023-02-15T14:04:32;10.40;99.90
15617;DHT22;7908;51.688;7.130;2023-02-15T14:07:21;10.50;99.90
15617;DHT22;7908;51.688;7.130;2023-02-15T14:10:03;10.50;99.90
15617;DHT22;7908;51.688;7.130;2023-02-15T14:12:51;10.50;99.90
15617;DHT22;7908;51.688;7.130;2023-02-15T14:15:30;10.50;99.90
15617;DHT22;7908;51.688;7.130;2023-02-15T14:18:12;10.60;99.90
15617;DHT22;7908;51.688;7.130;2023-02-15T14:20:51;10.60;99.90
15617;DHT22;7908;51.688;7.130;2023-02-15T14:23:33;10.60;99.90
15617;DHT22;7908;51.688;7.130;2023-02-15T14:26:10;10.60;99.90
15617;DHT22;7908;51.688;7.130;2023-02-15T14:28:45;10.70;99.90
15617;DHT22;7908;51.688;7.130;2023-02-15T14:31:32;10.70;99.90
15617;DHT22;7908;51.688;7.130;2023-02-15T14:34:04;10.70;99.90
15617;DHT22;7908;51.688;7.130;2023-02-15T14:36:34;10.70;99.90
15617;DHT22;7908;51.688;7.130;2023-02-15T14:39:14;10.70;99.90
15617;DHT22;7908;51.688;7.130;2023-02-15T14:42:01;10.70;99.90
15617;DHT22;7908;51.688;7.130;2023-02-15T14:44:37;10.70;99.90
15617;DHT22;7908;51.688;7.130;2023-02-15T14:47:10;10.70;99.90
15617;DHT22;7908;51.688;7.130;2023-02-15T14:49:42;10.70;99.90
15617;DHT22;7908;51.688;7.130;2023-02-15T14:52:11;10.60;99.90
15617;DHT22;7908;51.688;7.130;2023-02-15T14:54:54;10.60;99.90
15617;DHT22;7908;51.688;7.130;2023-02-15T14:57:26;10.60;99.90
15617;DHT22;7908;51.688;7.130;2023-02-15T15:02:53;10.50;99.90
15617;DHT22;7908;51.688;7.130;2023-02-15T15:05:27;10.50;99.90
15617;DHT22;7908;51.688;7.130;2023-02-15T15:08:00;10.50;99.90
15617;DHT22;7908;51.688;7.130;2023-02-15T15:10:42;10.50;99.90
15617;DHT22;7908;51.688;7.130;2023-02-15T15:13:51;10.50;99.90
15617;DHT22;7908;51.688;7.130;2023-02-15T15:19:12;10.50;99.90
15617;DHT22;7908;51.688;7.130;2023-02-15T15:22:20;10.50;99.90
15617;DHT22;7908;51.688;7.130;2023-02-15T15:24:54;10.50;99.90
15617;DHT22;7908;51.688;7.130;2023-02-15T15:27:45;10.50;99.90
15617;DHT22;7908;51.688;7.130;2023-02-15T15:37:13;10.50;99.90
15617;DHT22;7908;51.688;7.130;2023-02-15T15:49:07;10.40;99.90
15617;DHT22;7908;51.688;7.130;2023-02-15T15:51:40;10.40;99.90
15617;DHT22;7908;51.688;7.130;2023-02-15T15:54:15;10.40;99.90
15617;DHT22;7908;51.688;7.130;2023-02-15T15:56:47;10.30;99.90
15617;DHT22;7908;51.688;7.130;2023-02-15T15:59:20;10.30;99.90
15617;DHT22;7908;51.688;7.130;2023-02-15T16:01:54;10.30;99.90
15617;DHT22;7908;51.688;7.130;2023-02-15T16:04:25;10.20;99.90
15617;DHT22;7908;51.688;7.130;2023-02-15T16:06:56;10.20;99.90
15617;DHT22;7908;51.688;7.130;2023-02-15T16:09:28;10.10;99.90
15617;DHT22;7908;51.688;7.130;2023-02-15T16:11:58;10.10;99.90
15617;DHT22;7908;51.688;7.130;2023-02-15T16:14:31;10.00;99.90
15617;DHT22;7908;51.688;7.130;2023-02-15T16:17:03;10.00;99.90
15617;DHT22;7908;51.688;7.130;2023-02-15T16:19:34;10.00;99.90
15617;DHT22;7908;51.688;7.130;2023-02-15T16:24:53;9.80;99.90
15617;DHT22;7908;51.688;7.130;2023-02-15T16:27:36;9.80;99.90
15617;DHT22;7908;51.688;7.130;2023-02-15T16:30:21;9.80;99.90
15617;DHT22;7908;51.688;7.130;2023-02-15T16:32:53;9.70;99.90
15617;DHT22;7908;51.688;7.130;2023-02-15T16:35:23;9.60;99.90
15617;DHT22;7908;51.688;7.130;2023-02-15T16:37:52;9.60;99.90
15617;DHT22;7908;51.688;7.130;2023-02-15T16:40:45;9.50;99.90
15617;DHT22;7908;51.688;7.130;2023-02-15T16:43:18;9.50;99.90
15617;DHT22;7908;51.688;7.130;2023-02-15T16:45:48;9.40;99.90
15617;DHT22;7908;51.688;7.130;2023-02-15T16:48:21;9.40;99.90
15617;DHT22;7908;51.688;7.130;2023-02-15T16:50:53;9.30;99.90
15617;DHT22;7908;51.688;7.130;2023-02-15T16:53:24;9.20;99.90
15617;DHT22;7908;51.688;7.130;2023-02-15T16:55:55;9.10;99.90
15617;DHT22;7908;51.688;7.130;2023-02-15T16:58:30;9.00;99.90
15617;DHT22;7908;51.688;7.130;2023-02-15T17:01:01;8.90;99.90
15617;DHT22;7908;51.688;7.130;2023-02-15T17:03:33;8.80;99.90
15617;DHT22;7908;51.688;7.130;2023-02-15T17:06:04;8.80;99.90
15617;DHT22;7908;51.688;7.130;2023-02-15T17:08:45;8.70;99.90
15617;DHT22;7908;51.688;7.130;2023-02-15T17:11:16;8.70;99.90
15617;DHT22;7908;51.688;7.130;2023-02-15T17:16:59;8.60;99.90